Davis, CA (95616)

10:14 PM PDT on October 21, 2014 (GMT -0700)
Central Davis | Change Station
CLOSE
Current Station
Personal Weather Station
Location: Davis, CA
Elevation: 52 ft
Nearby Weather Stations

Elev 52 ft 38.55 °N, 121.75 °W | Updated 33 seconds ago

Clear
Clear
55.1 °F
Feels Like 55.1 °F
N
0.0
Wind Variable Wind from North
Gusts 0.0 mph

Today
High -- | Low -- °F
--% Chance of Precip.
Yesterday
High -- | Low -- °F
Precip. -- in
7:22 AM 6:20 PM
Waning Crescent, 3% visible
Pressure 30.01 in
Visibility 10.0 miles
Clouds Clear
Dew Point 44 °F
Humidity 67%
Rainfall 0.00 in
Snow Depth Not available.
UV 0 out of 12
Pollen 3.70 out of 12
Ozone Good
PM2.5 Moderate
Flu Activity Sporadic
METAR KSMF 220453Z 23003KT 10SM CLR 13/05 A3001 RMK AO2 SLP162 T01330050

More Conditions Fewer Conditions

Pressure 30.01 in
Visibility 10.0 miles
Clouds Clear
Dew Point 44 °F
Humidity 67%
Rainfall 0.00 in
Snow Depth Not available.
UV 0 out of 12
Pollen 3.70 out of 12
Ozone Good
PM2.5 Moderate
Flu Activity Sporadic
METAR KSMF 220453Z 23003KT 10SM CLR 13/05 A3001 RMK AO2 SLP162 T01330050

More Conditions Fewer Conditions

10-Day Weather Forecast

Almanac

Astronomy

Oct. 21, 2014 Rise Set
Actual Time 7:22 AM PDT 6:20 PM PDT
Civil Twilight 6:55 AM PDT 6:47 PM PDT
Nautical Twilight 6:24 AM PDT 7:18 PM PDT
Astronomical Twilight 5:53 AM PDT 7:48 PM PDT
Moon 5:12 AM PDT (10/21) 5:16 PM PDT (10/21)
Length of Visible Light 11h 52m
Length of Day
10h 58m
Tomorrow will be 2m 20s shorter.
Waning Crescent, 3% of the Moon is Illuminated
Oct 22
Waning Crescent
Oct 23
New
Oct 30
First Quarter
Nov 6
Full
Nov 14
Last Quarter

Yesterday's Extremes

State Highs State Lows

Community

WunderPhotos

Upload Photos

1,763,884 photos uploaded!

Nearby

Air Quality

  Air Quality AQ Index Pollutant
Yesterday Good
OZONE
Yesterday Good
PM2.5
Current Moderate
PM2.5
Current Good
OZONE
Tuesday Good
OZONE
Wednesday Good
OZONE
Thursday Good
OZONE
Friday Good
OZONE
Saturday Good
OZONE
Sunday Good
OZONE

Snow Depth

Station Depth Elevation
Squaw Valley 0 in 8200 ft
CSS Lab 1 in 6900 ft
Rubicon #2 1 in 7500 ft
Echo Peak 1 in 7800 ft
Fallen Leaf 0 in 6300 ft

Earthquake Activity

City Distance Mag. Time & Date
No recent earthquake activity has been reported nearby.
Minimum magnitude displayed is 2.5.

Coastal Water Temperatures

Place Temperature
San Francisco, CA 63.0 °F
Richmond, CA 64.0 °F
Port Chicago, CA 66.0 °F

Nearby Weather Stations